createdAt,value
2023-03-15T00:00:40.894Z,10.15
2023-03-15T00:04:02.110Z,10.04
2023-03-15T00:07:19.151Z,10.08
2023-03-15T00:10:35.764Z,9.98
2023-03-15T00:13:52.305Z,9.86
2023-03-15T00:17:08.679Z,9.74
2023-03-15T00:20:25.556Z,9.64
2023-03-15T00:23:42.110Z,9.51
2023-03-15T00:26:58.446Z,9.41
2023-03-15T00:30:17.236Z,9.20
2023-03-15T00:33:35.290Z,9.17
2023-03-15T00:36:53.327Z,9.07
2023-03-15T00:40:09.795Z,8.74
2023-03-15T00:43:25.987Z,8.61
2023-03-15T00:46:43.941Z,8.32
2023-03-15T00:50:00.748Z,8.22
2023-03-15T00:53:16.948Z,8.04
2023-03-15T00:56:35.247Z,7.94
2023-03-15T00:59:53.331Z,7.59
2023-03-15T01:03:09.528Z,7.41
2023-03-15T01:06:28.788Z,7.39
2023-03-15T01:09:48.489Z,7.40
2023-03-15T01:13:04.686Z,7.25
2023-03-15T01:16:22.607Z,7.14
2023-03-15T01:19:39.306Z,7.05
2023-03-15T01:22:55.779Z,6.89
2023-03-15T01:26:13.986Z,6.61
2023-03-15T01:29:30.069Z,6.33
2023-03-15T01:32:46.962Z,6.54
2023-03-15T01:36:11.706Z,6.51
2023-03-15T01:39:30.599Z,6.53
2023-03-15T01:42:58.797Z,6.50
2023-03-15T01:46:34.242Z,6.34
2023-03-15T01:50:07.438Z,6.26
2023-03-15T01:53:23.768Z,6.01
2023-03-15T01:56:43.181Z,6.07
2023-03-15T02:00:05.677Z,5.91
2023-03-15T02:03:31.226Z,5.94
2023-03-15T02:06:48.064Z,5.87
2023-03-15T02:10:09.798Z,5.80
2023-03-15T02:13:29.363Z,5.67
2023-03-15T02:16:47.673Z,5.65
2023-03-15T02:20:10.361Z,5.74
2023-03-15T02:23:28.893Z,5.75
2023-03-15T02:26:50.545Z,5.67
2023-03-15T02:30:07.217Z,5.51
2023-03-15T02:33:28.924Z,5.35
2023-03-15T02:36:45.941Z,5.37
2023-03-15T02:40:01.982Z,5.31
2023-03-15T02:43:23.021Z,5.24
2023-03-15T02:46:40.816Z,5.38
2023-03-15T02:49:59.798Z,5.38
2023-03-15T02:53:16.053Z,5.40
2023-03-15T02:56:33.866Z,5.30
2023-03-15T02:59:51.592Z,5.25
2023-03-15T03:03:09.600Z,5.28
2023-03-15T03:06:26.132Z,5.30
2023-03-15T03:09:43.093Z,5.23
2023-03-15T03:13:00.200Z,5.18
2023-03-15T03:16:19.302Z,5.04
2023-03-15T03:19:35.559Z,4.95
2023-03-15T03:22:52.235Z,4.91
2023-03-15T03:26:08.955Z,4.89
2023-03-15T03:29:24.945Z,4.89
2023-03-15T03:32:41.953Z,4.88
2023-03-15T03:35:59.386Z,4.95
2023-03-15T03:39:15.855Z,4.87
2023-03-15T03:42:32.464Z,4.70
2023-03-15T03:45:48.786Z,4.77
2023-03-15T03:49:05.764Z,4.78
2023-03-15T03:52:22.629Z,4.79
2023-03-15T03:55:40.046Z,4.85
2023-03-15T03:58:56.479Z,4.76
2023-03-15T04:02:14.583Z,4.80
2023-03-15T04:05:32.713Z,4.79
2023-03-15T04:08:49.440Z,4.62
2023-03-15T04:12:07.460Z,4.72
2023-03-15T04:15:25.394Z,4.66
2023-03-15T04:18:42.646Z,4.70
2023-03-15T04:21:59.274Z,4.69
2023-03-15T04:25:20.254Z,4.72
2023-03-15T04:28:50.459Z,4.80
2023-03-15T04:32:24.416Z,4.73
2023-03-15T04:35:58.942Z,4.62
2023-03-15T04:39:20.210Z,4.50
2023-03-15T04:42:36.292Z,4.51
2023-03-15T05:17:25.327Z,4.34
2023-03-15T05:20:42.208Z,4.42
2023-03-15T05:24:00.382Z,4.49
2023-03-15T05:27:24.099Z,4.46
2023-03-15T05:30:43.529Z,4.43
2023-03-15T05:34:05.175Z,4.30
2023-03-15T05:37:29.617Z,4.40
2023-03-15T05:41:03.238Z,4.35
2023-03-15T05:44:36.268Z,4.41
2023-03-15T05:47:56.743Z,4.32
2023-03-15T05:51:17.121Z,4.40
2023-03-15T05:54:35.968Z,4.32
2023-03-15T05:57:51.895Z,4.40
2023-03-15T06:01:26.091Z,4.38
2023-03-15T06:04:46.673Z,4.33
2023-03-15T06:08:17.656Z,4.36
2023-03-15T06:11:35.582Z,4.33
2023-03-15T06:14:52.232Z,4.31
2023-03-15T06:18:09.167Z,4.34
2023-03-15T06:21:27.092Z,4.40
2023-03-15T06:24:44.298Z,4.45
2023-03-15T06:28:02.032Z,4.47
2023-03-15T06:31:20.208Z,4.34
2023-03-15T06:34:38.106Z,4.47
2023-03-15T06:37:55.083Z,4.47
2023-03-15T06:41:16.439Z,4.40
2023-03-15T06:44:32.803Z,4.41
2023-03-15T06:47:50.500Z,4.43
2023-03-15T06:51:07.333Z,4.41
2023-03-15T06:54:23.435Z,4.40
2023-03-15T06:57:39.928Z,4.43
2023-03-15T07:00:57.127Z,4.48
2023-03-15T07:04:13.779Z,4.51
2023-03-15T07:07:29.792Z,4.57
2023-03-15T07:10:46.062Z,4.52
2023-03-15T07:14:02.330Z,4.40
2023-03-15T07:17:18.993Z,4.41
2023-03-15T07:20:37.460Z,4.43
2023-03-15T07:23:53.637Z,4.59
2023-03-15T07:27:09.857Z,4.50
2023-03-15T07:30:28.758Z,4.49
2023-03-15T07:33:45.167Z,4.48
2023-03-15T07:37:01.345Z,4.62
2023-03-15T07:40:20.756Z,4.72
2023-03-15T07:43:34.374Z,4.69
2023-03-15T07:47:01.360Z,4.74
2023-03-15T07:50:19.032Z,4.78
2023-03-15T07:53:35.495Z,4.70
2023-03-15T07:56:51.698Z,4.88
2023-03-15T08:00:08.029Z,4.96
2023-03-15T08:03:27.722Z,4.98
2023-03-15T08:06:47.117Z,4.97
2023-03-15T08:10:06.324Z,4.98
2023-03-15T08:13:22.970Z,5.01
2023-03-15T08:16:41.695Z,4.94
2023-03-15T08:19:57.967Z,5.00
2023-03-15T08:23:19.137Z,4.99
2023-03-15T08:26:35.479Z,5.01
2023-03-15T08:29:53.410Z,5.05
2023-03-15T08:33:13.316Z,5.06
2023-03-15T08:36:29.841Z,5.09
2023-03-15T08:39:47.904Z,5.05
2023-03-15T08:43:05.091Z,5.14
2023-03-15T08:46:22.728Z,5.09
2023-03-15T08:49:39.442Z,5.10
2023-03-15T08:52:56.418Z,5.18
2023-03-15T08:56:13.391Z,5.29
2023-03-15T08:59:32.164Z,5.29
2023-03-15T09:02:49.465Z,5.51
2023-03-15T09:06:08.082Z,5.57
2023-03-15T09:09:24.371Z,5.71
2023-03-15T09:12:40.548Z,5.78
2023-03-15T09:15:59.426Z,5.89
2023-03-15T09:19:15.653Z,5.90
2023-03-15T09:22:38.919Z,5.82
2023-03-15T09:25:50.415Z,5.94
2023-03-15T09:29:06.542Z,5.76
2023-03-15T09:32:25.970Z,5.81
2023-03-15T09:35:42.337Z,5.85
2023-03-15T09:38:58.530Z,5.82
2023-03-15T09:42:19.804Z,5.87
2023-03-15T09:45:48.967Z,5.94
2023-03-15T09:49:11.273Z,5.77
2023-03-15T09:52:44.688Z,5.78
2023-03-15T09:56:01.753Z,5.50
2023-03-15T09:59:23.609Z,5.49
2023-03-15T10:02:40.474Z,5.54
2023-03-15T10:06:01.855Z,5.63
2023-03-15T10:09:27.355Z,5.67
2023-03-15T10:12:46.039Z,5.62
2023-03-15T10:16:15.768Z,5.58
2023-03-15T10:19:44.074Z,5.57
2023-03-15T10:23:08.020Z,5.70
2023-03-15T10:26:28.919Z,5.71
2023-03-15T10:29:53.058Z,5.75
2023-03-15T10:33:19.024Z,5.82
2023-03-15T10:36:36.864Z,5.87
2023-03-15T10:39:58.885Z,5.85
2023-03-15T10:43:27.227Z,5.89
2023-03-15T10:46:43.751Z,5.86
2023-03-15T10:50:05.035Z,5.87
2023-03-15T10:53:26.403Z,5.93
2023-03-15T10:56:50.487Z,5.95
2023-03-15T11:00:14.456Z,6.03
2023-03-15T11:03:32.859Z,6.03
2023-03-15T11:06:54.874Z,6.07
2023-03-15T11:10:18.804Z,6.10
2023-03-15T11:13:38.251Z,6.09
2023-03-15T11:16:58.433Z,6.20
2023-03-15T11:20:31.443Z,6.22
2023-03-15T11:23:52.259Z,6.24
2023-03-15T11:27:15.804Z,6.16
2023-03-15T11:30:36.004Z,6.23
2023-03-15T11:34:00.569Z,6.15
2023-03-15T11:37:25.555Z,6.21
2023-03-15T11:40:45.995Z,6.05
2023-03-15T11:44:09.755Z,5.98
2023-03-15T11:47:34.187Z,6.04
2023-03-15T11:50:50.716Z,6.20
2023-03-15T11:54:19.010Z,6.31
2023-03-15T11:57:54.183Z,6.25
2023-03-15T12:01:15.841Z,6.17
2023-03-15T12:05:15.921Z,6.29
2023-03-15T12:08:46.266Z,6.34
2023-03-15T12:12:07.124Z,6.51
2023-03-15T12:15:49.810Z,6.58
2023-03-15T12:19:08.114Z,6.61
2023-03-15T12:22:26.649Z,6.62
2023-03-15T12:25:54.827Z,6.58
2023-03-15T12:29:20.307Z,6.60
2023-03-15T12:32:39.723Z,6.71
2023-03-15T12:35:54.077Z,6.75
2023-03-15T12:39:27.015Z,6.56
2023-03-15T12:43:09.482Z,6.60
2023-03-15T12:47:03.928Z,6.72
2023-03-15T12:50:55.290Z,6.75
2023-03-15T12:54:14.876Z,6.74
2023-03-15T12:57:35.130Z,6.82
2023-03-15T13:00:53.427Z,6.83
2023-03-15T13:04:10.961Z,6.83
2023-03-15T13:07:50.761Z,6.82
2023-03-15T13:11:12.093Z,6.76
2023-03-15T13:14:46.398Z,6.75
2023-03-15T13:18:07.441Z,6.74
2023-03-15T13:21:29.694Z,6.67
2023-03-15T13:24:55.262Z,6.55
2023-03-15T13:28:19.842Z,6.55
2023-03-15T13:31:37.897Z,6.62
2023-03-15T13:34:56.653Z,6.76
2023-03-15T13:38:30.493Z,6.80
2023-03-15T13:41:48.398Z,6.84
2023-03-15T13:45:25.401Z,6.88
2023-03-15T13:48:46.303Z,6.77
2023-03-15T13:52:03.016Z,6.76
2023-03-15T13:55:27.964Z,6.70
2023-03-15T13:58:46.740Z,6.59
2023-03-15T14:02:04.144Z,6.61
2023-03-15T14:05:25.720Z,6.62
2023-03-15T14:08:43.992Z,6.33
2023-03-15T14:12:14.743Z,6.47
2023-03-15T14:15:36.364Z,6.50
2023-03-15T14:18:53.959Z,6.51
2023-03-15T14:22:20.215Z,6.53
2023-03-15T14:25:41.757Z,6.58
2023-03-15T14:29:05.768Z,6.54
2023-03-15T14:32:34.829Z,6.52
2023-03-15T14:35:54.843Z,6.50
2023-03-15T14:39:13.020Z,6.50
2023-03-15T14:42:29.907Z,6.50
2023-03-15T14:45:51.218Z,6.47
2023-03-15T14:49:10.307Z,6.45
2023-03-15T14:52:26.990Z,6.38
2023-03-15T14:55:45.205Z,6.36
2023-03-15T14:59:03.369Z,6.31
2023-03-15T15:02:25.808Z,6.37
2023-03-15T15:05:44.101Z,6.37
2023-03-15T15:09:03.329Z,6.26
2023-03-15T15:12:21.629Z,6.29
2023-03-15T15:15:54.026Z,6.19
2023-03-15T15:18:55.937Z,6.09
2023-03-15T15:22:14.724Z,6.06
2023-03-15T15:25:32.232Z,6.07
2023-03-15T15:28:48.464Z,6.04
2023-03-15T15:32:05.782Z,6.04
2023-03-15T15:35:24.514Z,6.05
2023-03-15T15:38:42.751Z,6.04
2023-03-15T15:41:59.238Z,5.98
2023-03-15T15:45:21.411Z,5.95
2023-03-15T15:48:37.730Z,5.94
2023-03-15T15:51:55.638Z,5.93
2023-03-15T15:55:14.706Z,5.89
2023-03-15T15:58:30.995Z,5.82
2023-03-15T16:01:59.661Z,5.63
2023-03-15T16:05:05.761Z,5.70
2023-03-15T16:08:28.219Z,5.71
2023-03-15T16:11:45.558Z,5.64
2023-03-15T16:15:01.973Z,5.57
2023-03-15T16:18:22.260Z,5.50
2023-03-15T16:21:44.806Z,5.46
2023-03-15T16:25:05.070Z,5.41
2023-03-15T16:28:21.352Z,5.35
2023-03-15T16:31:38.564Z,5.38
2023-03-15T16:35:02.392Z,5.29
2023-03-15T16:38:27.175Z,5.28
2023-03-15T16:41:43.655Z,5.32
2023-03-15T16:45:00.380Z,5.28
2023-03-15T16:48:17.524Z,5.28
2023-03-15T16:51:37.366Z,5.23
2023-03-15T16:54:54.398Z,5.11
2023-03-15T16:58:17.502Z,5.06
2023-03-15T17:01:34.777Z,5.09
2023-03-15T17:04:51.866Z,5.02
2023-03-15T17:08:08.829Z,5.07
2023-03-15T17:11:30.073Z,5.01
2023-03-15T17:14:46.377Z,4.88
2023-03-15T17:18:03.646Z,4.81
2023-03-15T17:21:22.687Z,4.66
2023-03-15T17:24:39.783Z,4.54
2023-03-15T17:27:57.175Z,4.61
2023-03-15T17:31:25.299Z,4.59
2023-03-15T17:34:35.057Z,4.48
2023-03-15T17:37:52.365Z,4.38
2023-03-15T17:41:12.753Z,4.38
2023-03-15T17:44:29.196Z,4.31
2023-03-15T17:47:45.439Z,4.18
2023-03-15T17:51:01.735Z,4.24
2023-03-15T17:54:25.863Z,4.26
2023-03-15T17:57:52.341Z,4.13
2023-03-15T18:01:03.026Z,4.09
2023-03-15T18:04:22.953Z,4.07
2023-03-15T18:07:43.506Z,4.03
2023-03-15T18:11:00.695Z,3.95
2023-03-15T18:14:21.994Z,3.91
2023-03-15T18:17:39.050Z,3.82
2023-03-15T18:20:56.351Z,3.83
2023-03-15T18:24:14.156Z,3.81
2023-03-15T18:27:31.284Z,3.81
2023-03-15T18:30:49.369Z,3.81
2023-03-15T18:34:07.553Z,3.68
2023-03-15T18:37:23.676Z,3.56
2023-03-15T18:40:42.926Z,3.52
2023-03-15T18:44:00.222Z,3.53
2023-03-15T18:47:17.083Z,3.47
2023-03-15T18:50:34.262Z,3.54
2023-03-15T18:53:53.419Z,3.59
2023-03-15T18:57:09.554Z,3.62
2023-03-15T19:00:32.323Z,3.66
2023-03-15T19:03:49.133Z,3.68
2023-03-15T19:07:05.896Z,3.68
2023-03-15T19:10:25.622Z,3.76
2023-03-15T19:13:44.369Z,3.83
2023-03-15T19:17:00.851Z,3.84
2023-03-15T19:20:24.451Z,3.82
2023-03-15T19:23:40.958Z,3.87
2023-03-15T19:26:57.638Z,3.89
2023-03-15T19:30:20.018Z,3.94
2023-03-15T19:33:36.486Z,3.99
2023-03-15T19:36:53.005Z,3.98
2023-03-15T19:40:11.744Z,4.05
2023-03-15T19:43:28.016Z,4.09
2023-03-15T19:46:46.277Z,4.09
2023-03-15T19:50:02.864Z,4.04
2023-03-15T19:53:24.452Z,3.91
2023-03-15T19:56:41.174Z,3.89
2023-03-15T19:59:57.463Z,3.89
2023-03-15T20:03:14.048Z,3.76
2023-03-15T20:06:30.768Z,3.75
2023-03-15T20:09:47.783Z,3.65
2023-03-15T20:13:06.938Z,3.64
2023-03-15T20:16:23.303Z,3.60
2023-03-15T20:19:41.414Z,3.54
2023-03-15T20:22:59.575Z,3.48
2023-03-15T20:26:21.633Z,3.49
2023-03-15T20:29:39.425Z,3.59
2023-03-15T20:32:55.967Z,3.60
2023-03-15T20:36:13.911Z,3.58
2023-03-15T20:39:30.757Z,3.51
2023-03-15T20:42:47.898Z,3.42
2023-03-15T20:46:07.234Z,3.35
2023-03-15T20:49:24.468Z,3.37
2023-03-15T20:52:41.810Z,3.38
2023-03-15T20:55:57.967Z,3.31
2023-03-15T20:59:15.041Z,3.33
2023-03-15T21:02:31.350Z,3.31
2023-03-15T21:05:50.827Z,3.29
2023-03-15T21:09:07.555Z,3.33
2023-03-15T21:12:23.981Z,3.30
2023-03-15T21:15:40.234Z,3.32
2023-03-15T21:18:57.476Z,3.33
2023-03-15T21:22:13.917Z,3.38
2023-03-15T21:25:29.991Z,3.24
2023-03-15T21:28:48.386Z,3.05
2023-03-15T21:32:05.270Z,2.96
2023-03-15T21:35:22.984Z,2.94
2023-03-15T21:38:40.805Z,2.93
2023-03-15T21:41:56.909Z,2.83
2023-03-15T21:45:15.312Z,2.84
2023-03-15T21:48:31.413Z,2.82
2023-03-15T21:51:47.887Z,2.89
2023-03-15T21:55:05.657Z,2.98
2023-03-15T21:58:21.961Z,2.99
2023-03-15T22:01:38.353Z,3.00
2023-03-15T22:04:54.526Z,2.99
2023-03-15T22:08:10.879Z,3.04
2023-03-15T22:11:27.616Z,2.99
2023-03-15T22:14:45.883Z,2.98
2023-03-15T22:18:03.022Z,3.02
2023-03-15T22:21:19.067Z,3.07
2023-03-15T22:24:35.266Z,3.05
2023-03-15T22:27:51.928Z,3.07
2023-03-15T22:31:08.005Z,3.15
2023-03-15T22:34:26.007Z,3.15
2023-03-15T22:37:42.101Z,3.17
2023-03-15T22:41:07.230Z,3.18
2023-03-15T22:44:23.378Z,3.17
2023-03-15T22:47:39.501Z,3.09
2023-03-15T22:51:02.520Z,3.10
2023-03-15T22:54:19.122Z,3.07
2023-03-15T22:57:35.330Z,3.05
2023-03-15T23:00:51.485Z,3.04
2023-03-15T23:04:07.571Z,3.04
2023-03-15T23:07:23.777Z,3.00
2023-03-15T23:10:40.276Z,3.03
2023-03-15T23:13:57.443Z,3.03
2023-03-15T23:17:13.888Z,3.04
2023-03-15T23:20:31.137Z,3.07
2023-03-15T23:23:48.284Z,3.09
2023-03-15T23:27:04.426Z,3.12
2023-03-15T23:30:23.002Z,3.12
2023-03-15T23:33:40.354Z,3.13
2023-03-15T23:36:56.484Z,3.07
2023-03-15T23:40:17.642Z,3.00
2023-03-15T23:43:34.253Z,3.06
2023-03-15T23:46:50.591Z,3.08
2023-03-15T23:50:07.377Z,3.03
2023-03-15T23:53:23.481Z,3.03
2023-03-15T23:56:39.644Z,2.96
2023-03-15T23:59:55.882Z,2.96
